createdAt,value
2022-11-13T00:01:35.376Z,9.45
2022-11-13T00:03:59.243Z,9.75
2022-11-13T00:06:21.276Z,9.85
2022-11-13T00:08:44.577Z,10.20
2022-11-13T00:11:09.434Z,10.23
2022-11-13T00:13:31.327Z,9.95
2022-11-13T00:15:58.245Z,10.48
2022-11-13T00:18:19.910Z,10.43
2022-11-13T00:20:41.683Z,9.90
2022-11-13T00:23:03.286Z,9.75
2022-11-13T00:25:26.487Z,14.07
2022-11-13T00:27:48.128Z,9.30
2022-11-13T00:30:13.772Z,11.10
2022-11-13T00:32:40.165Z,12.43
2022-11-13T00:35:01.756Z,10.95
2022-11-13T00:37:23.320Z,10.73
2022-11-13T00:39:45.110Z,10.77
2022-11-13T00:42:08.216Z,9.43
2022-11-13T00:44:29.859Z,10.68
2022-11-13T00:46:51.330Z,9.48
2022-11-13T00:49:13.108Z,11.57
2022-11-13T00:51:34.514Z,9.55
2022-11-13T00:53:56.232Z,9.55
2022-11-13T00:56:17.822Z,12.40
2022-11-13T00:58:40.720Z,13.32
2022-11-13T01:01:06.686Z,12.85
2022-11-13T01:03:28.423Z,13.45
2022-11-13T01:05:50.213Z,9.70
2022-11-13T01:08:13.350Z,10.25
2022-11-13T01:10:42.321Z,9.07
2022-11-13T01:13:04.211Z,10.65
2022-11-13T01:15:27.736Z,10.23
2022-11-13T01:17:49.502Z,13.23
2022-11-13T01:20:12.191Z,10.15
2022-11-13T01:22:33.666Z,10.93
2022-11-13T01:24:55.118Z,11.00
2022-11-13T01:27:16.574Z,8.38
2022-11-13T01:29:38.931Z,8.30
2022-11-13T01:32:01.796Z,8.48
2022-11-13T01:34:23.879Z,10.60
2022-11-13T01:36:45.779Z,9.48
2022-11-13T01:39:07.105Z,9.07
2022-11-13T01:41:31.905Z,13.48
2022-11-13T01:43:54.510Z,10.93
2022-11-13T01:46:22.718Z,8.68
2022-11-13T01:48:48.473Z,11.35
2022-11-13T01:51:13.140Z,8.98
2022-11-13T01:53:35.093Z,11.75
2022-11-13T01:55:57.166Z,9.85
2022-11-13T01:58:18.866Z,9.80
2022-11-13T02:00:40.393Z,9.70
2022-11-13T02:03:02.741Z,9.90
2022-11-13T02:05:26.250Z,10.30
2022-11-13T02:07:49.332Z,10.13
2022-11-13T02:10:10.901Z,9.48
2022-11-13T02:12:35.675Z,8.65
2022-11-13T02:14:59.359Z,11.23
2022-11-13T02:17:24.353Z,11.27
2022-11-13T02:19:49.663Z,10.98
2022-11-13T02:22:18.067Z,10.90
2022-11-13T02:24:45.237Z,11.98
2022-11-13T02:27:09.841Z,11.25
2022-11-13T02:29:31.976Z,9.30
2022-11-13T02:31:53.806Z,9.00
2022-11-13T02:34:16.545Z,11.00
2022-11-13T02:36:38.294Z,9.75
2022-11-13T02:39:03.061Z,10.40
2022-11-13T02:41:26.583Z,9.00
2022-11-13T02:43:48.653Z,9.68
2022-11-13T02:46:10.301Z,10.65
2022-11-13T02:48:32.137Z,9.55
2022-11-13T02:50:54.423Z,11.63
2022-11-13T02:53:16.592Z,10.10
2022-11-13T02:55:38.744Z,10.63
2022-11-13T02:58:02.195Z,10.27
2022-11-13T03:00:24.638Z,12.23
2022-11-13T03:02:46.909Z,8.88
2022-11-13T03:05:12.550Z,10.27
2022-11-13T03:07:35.801Z,9.30
2022-11-13T03:09:58.064Z,9.05
2022-11-13T03:12:20.332Z,8.23
2022-11-13T03:14:43.878Z,10.13
2022-11-13T03:17:05.636Z,9.07
2022-11-13T03:19:28.228Z,9.50
2022-11-13T03:21:50.152Z,8.63
2022-11-13T03:24:12.209Z,8.60
2022-11-13T03:26:34.732Z,8.73
2022-11-13T03:28:57.415Z,8.35
2022-11-13T03:31:23.434Z,8.85
2022-11-13T03:33:45.752Z,9.80
2022-11-13T03:36:08.166Z,10.85
2022-11-13T03:38:31.004Z,9.00
2022-11-13T03:40:53.645Z,8.63
2022-11-13T03:43:16.486Z,14.10
2022-11-13T03:45:38.866Z,8.45
2022-11-13T03:48:01.948Z,8.40
2022-11-13T03:50:23.851Z,8.43
2022-11-13T03:52:45.913Z,7.85
2022-11-13T03:55:08.491Z,7.07
2022-11-13T03:57:32.114Z,9.35
2022-11-13T03:59:53.665Z,8.25
2022-11-13T04:02:15.234Z,8.73
2022-11-13T04:04:38.095Z,9.18
2022-11-13T04:06:59.839Z,8.32
2022-11-13T04:09:21.842Z,8.68
2022-11-13T04:11:43.478Z,9.02
2022-11-13T04:14:05.214Z,9.48
2022-11-13T04:16:26.775Z,9.23
2022-11-13T04:18:48.287Z,9.55
2022-11-13T04:21:11.496Z,10.57
2022-11-13T04:23:33.133Z,10.23
2022-11-13T04:25:54.651Z,9.70
2022-11-13T04:28:16.526Z,12.25
2022-11-13T04:30:38.485Z,9.55
2022-11-13T04:33:00.002Z,10.05
2022-11-13T04:35:21.464Z,9.80
2022-11-13T04:37:44.280Z,9.98
2022-11-13T04:40:06.942Z,11.23
2022-11-13T04:42:46.355Z,10.00
2022-11-13T04:45:08.734Z,9.10
2022-11-13T04:47:30.055Z,9.32
2022-11-13T04:49:51.652Z,8.70
2022-11-13T04:52:13.428Z,9.45
2022-11-13T04:54:36.718Z,8.35
2022-11-13T04:56:58.149Z,9.15
2022-11-13T04:59:19.691Z,10.07
2022-11-13T05:01:41.556Z,8.65
2022-11-13T05:04:03.522Z,12.23
2022-11-13T05:06:25.321Z,9.07
2022-11-13T05:08:47.512Z,9.85
2022-11-13T05:11:10.374Z,12.50
2022-11-13T05:13:33.132Z,12.55
2022-11-13T05:16:01.637Z,9.93
2022-11-13T05:18:26.387Z,10.27
2022-11-13T05:20:48.596Z,13.45
2022-11-13T05:23:10.028Z,11.50
2022-11-13T05:25:32.287Z,10.70
2022-11-13T05:27:55.690Z,11.63
2022-11-13T05:30:17.850Z,10.98
2022-11-13T05:32:39.571Z,15.93
2022-11-13T05:35:01.091Z,8.95
2022-11-13T05:37:22.900Z,12.82
2022-11-13T05:39:45.159Z,9.98
2022-11-13T05:42:07.024Z,12.20
2022-11-13T05:44:29.721Z,12.50
2022-11-13T05:46:51.064Z,12.13
2022-11-13T05:49:12.516Z,8.75
2022-11-13T05:51:35.337Z,9.50
2022-11-13T05:53:57.350Z,9.88
2022-11-13T05:56:20.242Z,10.57
2022-11-13T05:58:42.964Z,12.05
2022-11-13T06:01:11.756Z,10.35
2022-11-13T06:03:33.132Z,11.27
2022-11-13T06:05:54.925Z,9.93
2022-11-13T06:08:18.580Z,10.55
2022-11-13T06:10:40.026Z,12.10
2022-11-13T06:13:01.635Z,14.25
2022-11-13T06:15:22.958Z,10.35
2022-11-13T06:17:47.864Z,9.30
2022-11-13T06:20:10.535Z,18.88
2022-11-13T06:22:31.951Z,27.83
2022-11-13T06:24:53.348Z,10.68
2022-11-13T06:27:14.863Z,13.40
2022-11-13T06:29:36.396Z,11.45
2022-11-13T06:31:58.455Z,13.38
2022-11-13T06:34:21.556Z,15.65
2022-11-13T06:36:43.168Z,19.77
2022-11-13T06:39:07.493Z,25.77
2022-11-13T06:41:31.363Z,15.60
2022-11-13T06:43:53.061Z,22.67
2022-11-13T06:46:15.925Z,44.50
2022-11-13T06:48:37.539Z,55.03
2022-11-13T06:51:03.542Z,47.03
2022-11-13T06:53:25.292Z,59.20
2022-11-13T06:55:49.630Z,32.25
2022-11-13T06:58:11.351Z,53.05
2022-11-13T07:00:36.674Z,39.53
2022-11-13T07:02:59.744Z,28.38
2022-11-13T07:05:21.138Z,33.25
2022-11-13T07:07:44.748Z,42.40
2022-11-13T07:10:06.990Z,26.85
2022-11-13T07:12:29.918Z,16.83
2022-11-13T07:14:51.636Z,24.75
2022-11-13T07:17:14.571Z,36.58
2022-11-13T07:19:36.235Z,38.47
2022-11-13T07:21:57.685Z,23.63
2022-11-13T07:24:20.790Z,17.38
2022-11-13T07:26:42.322Z,8.70
2022-11-13T07:29:04.174Z,48.13
2022-11-13T07:31:25.856Z,11.88
2022-11-13T07:33:49.138Z,10.85
2022-11-13T07:36:11.654Z,13.32
2022-11-13T07:38:33.061Z,15.40
2022-11-13T07:40:56.204Z,14.80
2022-11-13T07:43:17.645Z,15.85
2022-11-13T07:45:39.323Z,22.17
2022-11-13T07:48:01.442Z,11.35
2022-11-13T07:50:23.214Z,38.70
2022-11-13T07:52:45.452Z,21.77
2022-11-13T07:55:08.243Z,13.32
2022-11-13T07:57:31.273Z,10.02
2022-11-13T07:59:52.699Z,14.00
2022-11-13T08:02:16.364Z,10.45
2022-11-13T08:04:38.056Z,11.35
2022-11-13T08:06:59.848Z,8.98
2022-11-13T08:09:22.297Z,8.77
2022-11-13T08:11:44.227Z,9.18
2022-11-13T08:14:07.735Z,9.30
2022-11-13T08:16:29.677Z,11.57
2022-11-13T08:18:51.630Z,9.85
2022-11-13T08:21:15.156Z,10.45
2022-11-13T08:23:36.693Z,9.43
2022-11-13T08:25:58.763Z,11.80
2022-11-13T08:28:20.497Z,11.70
2022-11-13T08:30:45.697Z,15.20
2022-11-13T08:33:07.315Z,14.68
2022-11-13T08:35:29.823Z,12.90
2022-11-13T08:37:51.697Z,18.40
2022-11-13T08:40:13.658Z,21.83
2022-11-13T08:42:35.185Z,18.77
2022-11-13T08:44:56.710Z,18.75
2022-11-13T08:47:19.857Z,15.43
2022-11-13T08:49:42.588Z,16.25
2022-11-13T08:52:04.298Z,20.05
2022-11-13T08:54:26.567Z,16.17
2022-11-13T08:56:53.033Z,46.90
2022-11-13T08:59:17.682Z,19.35
2022-11-13T09:01:39.134Z,19.95
2022-11-13T09:04:02.841Z,24.23
2022-11-13T09:06:24.669Z,16.05
2022-11-13T09:08:46.175Z,22.25
2022-11-13T09:11:08.014Z,19.63
2022-11-13T09:13:29.923Z,26.98
2022-11-13T09:15:51.388Z,15.02
2022-11-13T09:18:12.984Z,16.13
2022-11-13T09:20:36.356Z,20.98
2022-11-13T09:23:00.015Z,14.15
2022-11-13T09:25:21.783Z,14.15
2022-11-13T09:27:43.324Z,14.90
2022-11-13T09:30:05.814Z,15.38
2022-11-13T09:32:27.423Z,17.25
2022-11-13T09:34:49.469Z,13.02
2022-11-13T09:37:12.341Z,14.40
2022-11-13T09:39:34.342Z,13.35
2022-11-13T09:41:59.818Z,11.75
2022-11-13T09:44:25.716Z,13.00
2022-11-13T09:46:50.410Z,11.50
2022-11-13T09:49:17.500Z,12.23
2022-11-13T09:51:40.028Z,12.75
2022-11-13T09:54:06.603Z,11.77
2022-11-13T09:56:30.563Z,12.10
2022-11-13T09:58:59.183Z,13.48
2022-11-13T10:01:27.686Z,12.70
2022-11-13T10:04:01.474Z,12.95
2022-11-13T10:06:28.700Z,13.38
2022-11-13T10:08:57.210Z,15.30
2022-11-13T10:11:28.014Z,16.38
2022-11-13T10:13:51.928Z,14.40
2022-11-13T10:16:21.449Z,16.00
2022-11-13T10:18:44.400Z,13.43
2022-11-13T10:21:14.136Z,15.40
2022-11-13T10:23:38.194Z,12.75
2022-11-13T10:26:05.365Z,13.70
2022-11-13T10:28:49.569Z,13.90
2022-11-13T10:31:11.478Z,13.73
2022-11-13T10:33:33.122Z,12.85
2022-11-13T10:35:58.736Z,11.60
2022-11-13T10:38:26.923Z,11.07
2022-11-13T10:40:49.177Z,11.95
2022-11-13T10:43:15.979Z,11.90
2022-11-13T10:45:40.089Z,11.63
2022-11-13T10:48:04.579Z,14.45
2022-11-13T10:50:28.684Z,13.18
2022-11-13T10:52:51.582Z,15.50
2022-11-13T10:55:17.664Z,19.95
2022-11-13T10:57:39.602Z,14.73
2022-11-13T11:00:01.602Z,13.57
2022-11-13T11:02:25.900Z,11.88
2022-11-13T11:04:48.624Z,13.55
2022-11-13T11:07:20.890Z,13.07
2022-11-13T11:09:44.421Z,13.45
2022-11-13T11:12:18.904Z,13.80
2022-11-13T11:14:45.262Z,14.57
2022-11-13T11:17:07.440Z,14.13
2022-11-13T11:19:32.254Z,13.80
2022-11-13T11:21:55.979Z,29.45
2022-11-13T11:24:21.430Z,16.80
2022-11-13T11:26:47.274Z,13.95
2022-11-13T11:29:15.950Z,15.82
2022-11-13T11:31:43.034Z,11.68
2022-11-13T11:34:14.151Z,12.05
2022-11-13T11:36:43.000Z,11.95
2022-11-13T11:39:13.102Z,11.75
2022-11-13T11:41:39.754Z,10.60
2022-11-13T11:44:06.342Z,12.35
2022-11-13T11:46:28.490Z,13.35
2022-11-13T11:48:51.061Z,13.00
2022-11-13T11:51:22.795Z,13.18
2022-11-13T11:53:54.083Z,13.77
2022-11-13T11:56:23.572Z,13.18
2022-11-13T11:59:05.696Z,13.35
2022-11-13T12:01:35.014Z,13.50
2022-11-13T12:04:08.205Z,14.00
2022-11-13T12:06:40.889Z,14.82
2022-11-13T12:09:09.510Z,16.13
2022-11-13T12:11:33.388Z,14.82
2022-11-13T12:14:03.540Z,16.23
2022-11-13T12:16:31.223Z,13.40
2022-11-13T12:18:57.092Z,13.73
2022-11-13T12:21:23.557Z,12.32
2022-11-13T12:23:58.008Z,16.00
2022-11-13T12:26:25.436Z,13.30
2022-11-13T12:28:51.159Z,13.43
2022-11-13T12:31:20.273Z,14.07
2022-11-13T12:33:49.513Z,13.15
2022-11-13T12:36:12.719Z,14.57
2022-11-13T12:38:40.091Z,13.18
2022-11-13T12:41:09.073Z,15.07
2022-11-13T12:43:43.260Z,14.00
2022-11-13T12:46:08.817Z,14.68
2022-11-13T12:48:35.029Z,13.20
2022-11-13T12:51:01.204Z,13.15
2022-11-13T12:53:26.985Z,15.05
2022-11-13T12:55:59.990Z,13.33
2022-11-13T12:58:25.501Z,14.15
2022-11-13T13:00:55.616Z,14.87
2022-11-13T13:03:31.868Z,12.90
2022-11-13T13:06:03.848Z,12.82
2022-11-13T13:08:48.548Z,13.33
2022-11-13T13:11:19.386Z,14.70
2022-11-13T13:13:46.464Z,13.73
2022-11-13T13:16:09.938Z,13.43
2022-11-13T13:18:34.057Z,13.40
2022-11-13T13:21:07.412Z,13.10
2022-11-13T13:23:32.081Z,13.83
2022-11-13T13:26:03.621Z,15.53
2022-11-13T13:28:25.573Z,13.77
2022-11-13T13:30:52.787Z,12.97
2022-11-13T13:33:22.062Z,14.00
2022-11-13T13:35:56.156Z,15.37
2022-11-13T13:38:25.210Z,14.60
2022-11-13T13:41:00.531Z,15.67
2022-11-13T13:43:35.639Z,15.77
2022-11-13T13:46:03.253Z,15.63
2022-11-13T13:48:28.437Z,19.33
2022-11-13T13:50:52.064Z,15.40
2022-11-13T13:53:17.162Z,15.17
2022-11-13T13:55:40.686Z,15.77
2022-11-13T13:58:05.726Z,14.53
2022-11-13T14:00:27.676Z,16.10
2022-11-13T14:02:50.436Z,14.80
2022-11-13T14:05:27.301Z,16.77
2022-11-13T14:07:49.177Z,17.50
2022-11-13T14:10:16.881Z,16.83
2022-11-13T14:12:42.365Z,16.80
2022-11-13T14:15:06.618Z,17.83
2022-11-13T14:17:29.160Z,16.83
2022-11-13T14:19:51.399Z,16.27
2022-11-13T14:22:14.378Z,17.43
2022-11-13T14:24:47.937Z,20.47
2022-11-13T14:27:12.018Z,18.80
2022-11-13T14:29:37.165Z,16.73
2022-11-13T14:32:04.452Z,16.43
2022-11-13T14:34:25.864Z,18.13
2022-11-13T14:36:48.374Z,17.80
2022-11-13T14:39:20.772Z,18.60
2022-11-13T14:41:47.558Z,18.80
2022-11-13T14:44:11.785Z,20.70
2022-11-13T14:46:37.020Z,18.07
2022-11-13T14:48:59.126Z,23.83
2022-11-13T14:51:24.969Z,19.40
2022-11-13T14:53:58.493Z,17.70
2022-11-13T14:56:33.432Z,18.90
2022-11-13T14:58:55.042Z,16.67
2022-11-13T15:01:18.140Z,18.03
2022-11-13T15:03:39.769Z,20.90
2022-11-13T15:06:01.317Z,20.00
2022-11-13T15:08:22.953Z,18.10
2022-11-13T15:10:44.953Z,18.07
2022-11-13T15:13:12.852Z,18.13
2022-11-13T15:15:34.718Z,19.03
2022-11-13T15:17:56.848Z,18.67
2022-11-13T15:20:22.384Z,28.10
2022-11-13T15:22:44.122Z,20.73
2022-11-13T15:25:10.382Z,17.73
2022-11-13T15:27:32.096Z,18.37
2022-11-13T15:29:54.606Z,16.50
2022-11-13T15:32:16.622Z,17.67
2022-11-13T15:34:38.203Z,34.00
2022-11-13T15:36:59.897Z,21.27
2022-11-13T15:39:24.016Z,18.70
2022-11-13T15:41:47.146Z,18.67
2022-11-13T15:44:13.527Z,17.77
2022-11-13T15:46:36.647Z,17.50
2022-11-13T15:48:58.365Z,18.73
2022-11-13T15:51:23.125Z,20.47
2022-11-13T15:53:45.556Z,18.23
2022-11-13T15:56:07.974Z,18.70
2022-11-13T15:58:33.492Z,17.73
2022-11-13T16:00:56.357Z,17.20
2022-11-13T16:03:19.276Z,18.40
2022-11-13T16:05:40.759Z,18.63
2022-11-13T16:08:02.571Z,17.57
2022-11-13T16:10:25.821Z,18.38
2022-11-13T16:12:47.597Z,19.00
2022-11-13T16:15:10.812Z,39.10
2022-11-13T16:17:34.732Z,34.80
2022-11-13T16:19:57.976Z,22.30
2022-11-13T16:22:21.840Z,18.92
2022-11-13T16:24:44.064Z,19.25
2022-11-13T16:27:06.306Z,18.10
2022-11-13T16:29:28.354Z,20.98
2022-11-13T16:31:50.190Z,22.67
2022-11-13T16:34:11.639Z,19.37
2022-11-13T16:36:34.845Z,20.85
2022-11-13T16:38:56.658Z,19.30
2022-11-13T16:41:20.281Z,23.73
2022-11-13T16:43:42.111Z,20.05
2022-11-13T16:46:03.938Z,26.02
2022-11-13T16:48:25.440Z,22.63
2022-11-13T16:50:47.096Z,20.80
2022-11-13T16:53:10.429Z,19.75
2022-11-13T16:55:32.081Z,18.85
2022-11-13T16:57:53.574Z,18.73
2022-11-13T17:00:17.391Z,21.40
2022-11-13T17:02:39.678Z,28.38
2022-11-13T17:05:01.357Z,52.13
2022-11-13T17:07:23.319Z,160.65
2022-11-13T17:09:55.110Z,151.80
2022-11-13T17:12:25.710Z,116.90
2022-11-13T17:14:47.403Z,99.43
2022-11-13T17:17:13.126Z,80.90
2022-11-13T17:19:34.860Z,38.30
2022-11-13T17:21:56.625Z,42.60
2022-11-13T17:24:19.483Z,29.27
2022-11-13T17:26:42.247Z,26.73
2022-11-13T17:29:05.685Z,21.80
2022-11-13T17:31:27.856Z,19.00
2022-11-13T17:33:49.607Z,19.87
2022-11-13T17:36:12.110Z,21.98
2022-11-13T17:38:33.985Z,24.75
2022-11-13T17:40:55.750Z,28.83
2022-11-13T17:43:18.905Z,25.88
2022-11-13T17:45:40.692Z,21.60
2022-11-13T17:48:02.514Z,20.20
2022-11-13T17:50:24.279Z,21.35
2022-11-13T17:52:45.811Z,19.52
2022-11-13T17:55:10.752Z,21.00
2022-11-13T17:57:33.382Z,20.40
2022-11-13T17:59:56.561Z,19.55
2022-11-13T18:02:18.237Z,21.02
2022-11-13T18:04:40.115Z,22.05
2022-11-13T18:07:01.921Z,25.73
2022-11-13T18:09:23.331Z,33.75
2022-11-13T18:11:45.176Z,31.90
2022-11-13T18:14:07.179Z,31.95
2022-11-13T18:16:33.925Z,24.38
2022-11-13T18:18:57.904Z,20.02
2022-11-13T18:21:23.483Z,31.88
2022-11-13T18:23:45.674Z,53.88
2022-11-13T18:26:09.742Z,51.42
2022-11-13T18:28:31.418Z,45.13
2022-11-13T18:30:56.586Z,40.17
2022-11-13T18:33:20.174Z,35.00
2022-11-13T18:35:42.327Z,77.43
2022-11-13T18:38:04.117Z,37.47
2022-11-13T18:40:26.039Z,39.20
2022-11-13T18:42:47.979Z,37.78
2022-11-13T18:45:11.731Z,35.85
2022-11-13T18:47:35.534Z,64.43
2022-11-13T18:49:58.813Z,58.72
2022-11-13T18:52:20.596Z,54.72
2022-11-13T18:54:42.257Z,50.00
2022-11-13T18:57:04.152Z,49.45
2022-11-13T18:59:25.666Z,42.58
2022-11-13T19:01:47.435Z,35.60
2022-11-13T19:04:25.683Z,29.48
2022-11-13T19:06:49.306Z,29.08
2022-11-13T19:09:13.598Z,27.65
2022-11-13T19:11:35.636Z,26.98
2022-11-13T19:13:57.682Z,29.67
2022-11-13T19:16:21.314Z,25.90
2022-11-13T19:18:44.121Z,28.10
2022-11-13T19:21:07.127Z,26.77
2022-11-13T19:23:30.066Z,24.88
2022-11-13T19:25:51.671Z,28.48
2022-11-13T19:28:13.313Z,26.88
2022-11-13T19:30:35.006Z,27.80
2022-11-13T19:32:56.971Z,25.23
2022-11-13T19:35:18.873Z,20.80
2022-11-13T19:37:40.861Z,21.77
2022-11-13T19:40:04.353Z,23.95
2022-11-13T19:42:26.048Z,20.77
2022-11-13T19:44:48.493Z,27.17
2022-11-13T19:47:10.315Z,140.10
2022-11-13T19:49:31.960Z,104.90
2022-11-13T19:51:54.746Z,106.97
2022-11-13T19:54:17.010Z,57.75
2022-11-13T19:56:40.028Z,74.45
2022-11-13T19:59:01.938Z,61.95
2022-11-13T20:01:25.822Z,48.67
2022-11-13T20:03:48.475Z,26.52
2022-11-13T20:06:11.831Z,30.90
2022-11-13T20:08:34.954Z,31.88
2022-11-13T20:11:02.132Z,27.48
2022-11-13T20:13:25.325Z,24.23
2022-11-13T20:15:54.102Z,26.20
2022-11-13T20:18:16.883Z,22.77
2022-11-13T20:20:38.876Z,23.40
2022-11-13T20:23:03.645Z,26.83
2022-11-13T20:25:25.267Z,27.38
2022-11-13T20:27:47.742Z,29.15
2022-11-13T20:30:13.011Z,33.78
2022-11-13T20:32:37.650Z,28.23
2022-11-13T20:34:59.536Z,21.65
2022-11-13T20:37:21.197Z,23.67
2022-11-13T20:39:42.875Z,18.58
2022-11-13T20:42:05.107Z,24.38
2022-11-13T20:44:27.574Z,25.83
2022-11-13T20:46:50.395Z,23.27
2022-11-13T20:49:13.348Z,22.88
2022-11-13T20:51:35.757Z,25.00
2022-11-13T20:53:57.811Z,24.67
2022-11-13T20:56:21.639Z,26.08
2022-11-13T20:58:44.298Z,25.50
2022-11-13T21:01:08.210Z,22.92
2022-11-13T21:03:31.698Z,24.15
2022-11-13T21:05:53.742Z,27.55
2022-11-13T21:08:15.816Z,27.33
2022-11-13T21:10:37.428Z,22.23
2022-11-13T21:12:59.376Z,21.52
2022-11-13T21:15:21.711Z,21.83
2022-11-13T21:17:43.794Z,21.33
2022-11-13T21:20:08.497Z,20.63
2022-11-13T21:22:30.136Z,18.90
2022-11-13T21:24:51.727Z,19.25
2022-11-13T21:27:13.571Z,18.70
2022-11-13T21:29:36.590Z,20.98
2022-11-13T21:31:58.758Z,28.05
2022-11-13T21:34:21.842Z,31.33
2022-11-13T21:36:45.307Z,25.95
2022-11-13T21:39:07.159Z,23.13
2022-11-13T21:41:29.932Z,22.63
2022-11-13T21:43:53.261Z,19.67
2022-11-13T21:46:15.035Z,19.42
2022-11-13T21:48:37.310Z,27.52
2022-11-13T21:50:59.563Z,21.50
2022-11-13T21:53:22.907Z,24.52
2022-11-13T21:55:50.123Z,27.00
2022-11-13T21:58:11.869Z,66.82
2022-11-13T22:00:34.195Z,68.70
2022-11-13T22:02:55.822Z,50.72
2022-11-13T22:05:17.659Z,92.80
2022-11-13T22:07:39.139Z,51.85
2022-11-13T22:10:07.926Z,34.05
2022-11-13T22:12:31.061Z,21.17
2022-11-13T22:14:52.566Z,23.95
2022-11-13T22:17:14.531Z,31.90
2022-11-13T22:19:36.682Z,33.60
2022-11-13T22:21:58.563Z,33.03
2022-11-13T22:24:20.487Z,31.13
2022-11-13T22:26:45.241Z,28.25
2022-11-13T22:29:07.346Z,22.50
2022-11-13T22:31:30.346Z,20.33
2022-11-13T22:33:55.158Z,20.98
2022-11-13T22:36:19.656Z,22.15
2022-11-13T22:38:41.186Z,19.40
2022-11-13T22:41:04.306Z,23.63
2022-11-13T22:43:27.428Z,29.52
2022-11-13T22:45:48.789Z,32.28
2022-11-13T22:48:11.568Z,37.53
2022-11-13T22:50:35.903Z,29.77
2022-11-13T22:52:57.613Z,32.22
2022-11-13T22:55:19.523Z,28.33
2022-11-13T22:57:40.995Z,21.42
2022-11-13T23:00:09.209Z,22.95
2022-11-13T23:02:30.888Z,29.08
2022-11-13T23:04:52.528Z,31.88
2022-11-13T23:07:14.152Z,28.20
2022-11-13T23:09:35.929Z,27.30
2022-11-13T23:11:57.671Z,26.33
2022-11-13T23:14:19.071Z,19.17
2022-11-13T23:16:43.167Z,21.00
2022-11-13T23:19:05.481Z,21.90
2022-11-13T23:21:27.767Z,18.60
2022-11-13T23:23:49.456Z,22.05
2022-11-13T23:26:12.117Z,20.48
2022-11-13T23:28:33.877Z,22.85
2022-11-13T23:30:55.724Z,19.70
2022-11-13T23:33:18.966Z,21.23
2022-11-13T23:35:40.870Z,21.73
2022-11-13T23:38:02.626Z,19.73
2022-11-13T23:40:24.541Z,21.75
2022-11-13T23:42:55.270Z,21.58
2022-11-13T23:45:17.435Z,23.50
2022-11-13T23:47:39.387Z,22.83
2022-11-13T23:50:02.523Z,19.23
2022-11-13T23:52:24.387Z,19.95
2022-11-13T23:54:45.970Z,21.88
2022-11-13T23:57:07.617Z,32.10
2022-11-13T23:59:29.074Z,21.92
